Time;durP1;ratioP1;P1;durP2;ratioP2;P2;SDS_P1;SDS_P2;PMS_P1;PMS_P2;Temp;Humidity;BMP_temperature;BMP_pressure;BME280_temperature;BME280_humidity;BME280_pressure;Samples;Min_cycle;Max_cycle;Signal;HPM_P1;HPM_P2
2021/07/11 00:00:48;;;;;;;12.05;9.43;;;15.90;99.90;;;;;;5049664;28;20026;-61
2021/07/11 00:03:13;;;;;;;10.65;8.45;;;15.90;99.90;;;;;;5019141;28;20996;-61
2021/07/11 00:05:39;;;;;;;14.77;9.43;;;15.90;99.90;;;;;;5028635;28;20036;-63
2021/07/11 00:08:05;;;;;;;12.15;10.07;;;15.90;99.90;;;;;;5051128;28;20390;-63
2021/07/11 00:10:31;;;;;;;18.35;11.98;;;15.80;99.90;;;;;;5048883;28;20026;-63
2021/07/11 00:12:57;;;;;;;17.58;11.45;;;15.90;99.90;;;;;;5047618;28;20021;-63
2021/07/11 00:15:24;;;;;;;22.25;12.88;;;15.80;99.90;;;;;;5049965;28;20510;-63
2021/07/11 00:17:51;;;;;;;15.82;11.70;;;15.80;99.90;;;;;;5045315;28;20047;-61
2021/07/11 00:20:17;;;;;;;16.52;11.63;;;15.80;99.90;;;;;;5050863;28;20486;-61
2021/07/11 00:22:43;;;;;;;15.73;11.18;;;15.80;99.90;;;;;;5050220;28;20033;-62
2021/07/11 00:25:13;;;;;;;17.90;11.95;;;15.80;99.90;;;;;;5049255;28;20037;-60
2021/07/11 00:27:38;;;;;;;23.17;12.50;;;15.90;99.90;;;;;;5055303;28;20039;-63
2021/07/11 00:30:05;;;;;;;18.67;10.95;;;15.80;99.90;;;;;;5049482;28;20039;-62
2021/07/11 00:32:30;;;;;;;17.98;12.27;;;15.90;99.90;;;;;;5049664;28;20021;-63
2021/07/11 00:34:56;;;;;;;21.25;13.48;;;15.80;99.90;;;;;;5048535;28;20028;-61
2021/07/11 00:37:21;;;;;;;23.95;13.48;;;15.80;99.90;;;;;;5051150;28;20025;-63
2021/07/11 00:39:47;;;;;;;18.13;13.18;;;15.80;99.90;;;;;;5055461;28;20483;-62
2021/07/11 00:42:13;;;;;;;18.85;12.48;;;15.80;99.90;;;;;;5048577;28;20040;-61
2021/07/11 00:44:39;;;;;;;18.40;12.98;;;15.80;99.90;;;;;;5052179;28;20037;-62
2021/07/11 00:47:05;;;;;;;18.38;13.52;;;15.80;99.90;;;;;;5046976;28;20033;-61
2021/07/11 00:49:30;;;;;;;54.50;15.45;;;15.80;99.90;;;;;;5051118;28;20108;-62
2021/07/11 00:51:56;;;;;;;43.80;15.27;;;15.80;99.90;;;;;;5043660;28;20090;-62
2021/07/11 00:54:22;;;;;;;27.55;16.25;;;15.80;99.90;;;;;;5042480;28;20037;-62
2021/07/11 00:56:48;;;;;;;30.67;17.63;;;15.80;99.90;;;;;;5041340;28;20033;-62
2021/07/11 00:59:17;;;;;;;24.92;16.70;;;15.80;99.90;;;;;;5047103;28;20029;-62
2021/07/11 01:01:55;;;;;;;32.17;15.73;;;15.80;99.90;;;;;;5049962;28;20033;-62
2021/07/11 01:04:29;;;;;;;24.42;16.17;;;15.80;99.90;;;;;;5034116;28;20055;-63
2021/07/11 01:07:00;;;;;;;22.52;15.40;;;15.80;99.90;;;;;;5052215;28;20486;-62
2021/07/11 01:09:38;;;;;;;23.83;16.15;;;15.80;99.90;;;;;;5045712;28;20044;-62
2021/07/11 01:12:08;;;;;;;25.23;16.15;;;15.80;99.90;;;;;;5049412;28;20029;-64
2021/07/11 01:14:35;;;;;;;27.77;17.25;;;15.80;99.90;;;;;;5048077;28;20043;-63
2021/07/11 01:17:04;;;;;;;25.40;16.48;;;15.80;99.90;;;;;;5048394;28;20043;-62
2021/07/11 01:19:52;;;;;;;26.95;17.17;;;15.80;99.90;;;;;;5050121;28;20021;-60
2021/07/11 01:22:22;;;;;;;23.13;16.58;;;15.80;99.90;;;;;;5042497;28;20217;-63
2021/07/11 01:25:01;;;;;;;26.85;17.63;;;15.80;99.90;;;;;;5031809;28;20126;-63
2021/07/11 01:27:30;;;;;;;26.42;17.77;;;15.80;99.90;;;;;;5047979;28;20024;-61
2021/07/11 01:29:57;;;;;;;23.27;15.45;;;15.80;99.90;;;;;;5046662;28;20028;-62
2021/07/11 01:32:24;;;;;;;23.23;16.00;;;15.80;99.90;;;;;;5048146;28;20506;-60
2021/07/11 01:34:51;;;;;;;26.13;18.58;;;15.80;99.90;;;;;;5049283;28;20051;-61
2021/07/11 01:37:17;;;;;;;26.90;18.60;;;15.80;99.90;;;;;;5045895;28;20581;-62
2021/07/11 01:39:44;;;;;;;24.08;17.90;;;15.80;99.90;;;;;;5042428;28;20025;-62
2021/07/11 01:42:11;;;;;;;26.80;17.13;;;15.80;99.90;;;;;;5046715;28;20114;-62
2021/07/11 01:44:37;;;;;;;27.30;17.48;;;15.80;99.90;;;;;;5035242;28;20032;-63
2021/07/11 01:47:04;;;;;;;25.45;18.50;;;15.80;99.90;;;;;;5044368;28;20037;-63
2021/07/11 01:49:33;;;;;;;23.83;17.20;;;15.80;99.90;;;;;;5047566;28;20139;-61
2021/07/11 01:51:59;;;;;;;25.35;19.20;;;15.80;99.90;;;;;;5047478;28;20083;-62
2021/07/11 01:54:28;;;;;;;27.52;19.38;;;15.80;99.90;;;;;;5029634;28;20033;-62
2021/07/11 01:56:54;;;;;;;27.17;18.95;;;15.90;99.90;;;;;;5044455;28;20569;-63
2021/07/11 01:59:20;;;;;;;25.75;16.75;;;15.80;99.90;;;;;;5058338;28;20112;-63
2021/07/11 02:01:45;;;;;;;29.08;16.85;;;15.80;99.90;;;;;;5047185;28;20027;-63
2021/07/11 02:04:11;;;;;;;21.85;15.35;;;15.80;99.90;;;;;;5030093;28;20040;-62
2021/07/11 02:06:38;;;;;;;22.17;15.98;;;15.80;99.90;;;;;;5048678;28;20085;-61
2021/07/11 02:09:07;;;;;;;20.55;13.40;;;15.80;99.90;;;;;;5046548;28;20049;-62
2021/07/11 02:11:36;;;;;;;21.25;14.35;;;15.70;99.90;;;;;;5046788;28;20025;-61
2021/07/11 02:14:09;;;;;;;21.55;15.38;;;15.80;99.90;;;;;;5027760;28;20040;-62
2021/07/11 02:16:55;;;;;;;20.13;15.32;;;15.70;99.90;;;;;;5038549;28;20030;-62
2021/07/11 02:19:21;;;;;;;25.15;15.80;;;15.70;99.90;;;;;;5044929;28;20029;-63
2021/07/11 02:21:47;;;;;;;25.48;15.73;;;15.70;99.90;;;;;;5027262;28;20037;-61
2021/07/11 02:24:14;;;;;;;25.92;15.15;;;15.70;99.90;;;;;;5045256;28;20037;-61
2021/07/11 02:26:41;;;;;;;20.00;14.65;;;15.60;99.90;;;;;;5038606;28;20029;-62
2021/07/11 02:29:07;;;;;;;23.75;16.13;;;15.60;99.90;;;;;;5044386;28;20558;-62
2021/07/11 02:31:36;;;;;;;26.05;17.83;;;15.60;99.90;;;;;;5050140;28;20036;-63
2021/07/11 02:34:04;;;;;;;30.77;19.58;;;15.60;99.90;;;;;;5053488;28;20013;-63
2021/07/11 02:36:31;;;;;;;34.53;20.60;;;15.60;99.90;;;;;;5053283;28;20032;-62
2021/07/11 02:39:07;;;;;;;28.92;18.90;;;15.60;99.90;;;;;;5047855;28;20140;-62
2021/07/11 02:41:35;;;;;;;30.67;18.67;;;15.60;99.90;;;;;;5042315;28;20029;-61
2021/07/11 02:44:06;;;;;;;26.17;18.60;;;15.60;99.90;;;;;;5046851;28;20486;-62
2021/07/11 02:46:39;;;;;;;31.88;19.38;;;15.60;99.90;;;;;;5046179;28;20082;-62
2021/07/11 02:49:07;;;;;;;28.80;18.88;;;15.50;99.90;;;;;;5048156;28;20079;-63
2021/07/11 02:51:38;;;;;;;30.63;17.85;;;15.50;99.90;;;;;;5049543;28;20029;-61
2021/07/11 02:54:06;;;;;;;32.55;18.83;;;15.50;99.90;;;;;;5046999;28;20024;-63
2021/07/11 02:56:38;;;;;;;29.88;18.75;;;15.60;99.90;;;;;;5048281;28;20031;-62
2021/07/11 02:59:08;;;;;;;31.05;19.60;;;15.50;99.90;;;;;;5045629;28;20037;-61
2021/07/11 03:01:34;;;;;;;31.52;19.50;;;15.50;99.90;;;;;;5046935;28;20044;-63
2021/07/11 03:04:03;;;;;;;30.38;19.75;;;15.60;99.90;;;;;;5030973;28;20041;-60
2021/07/11 03:06:37;;;;;;;32.78;18.25;;;15.50;99.90;;;;;;5048048;28;20098;-59
2021/07/11 03:09:05;;;;;;;29.35;19.95;;;15.50;99.90;;;;;;5046090;28;20235;-62
2021/07/11 03:11:31;;;;;;;32.90;21.33;;;15.50;99.90;;;;;;5048476;28;20032;-60
2021/07/11 03:13:59;;;;;;;38.40;22.50;;;15.60;99.90;;;;;;5048179;28;20482;-62
2021/07/11 03:16:25;;;;;;;34.55;22.88;;;15.50;99.90;;;;;;5047646;28;20067;-62
2021/07/11 03:18:54;;;;;;;32.45;21.73;;;15.60;99.90;;;;;;5044772;28;20025;-62
2021/07/11 03:21:23;;;;;;;34.17;20.90;;;15.60;99.90;;;;;;5043606;28;20087;-62
2021/07/11 03:23:54;;;;;;;37.72;22.83;;;15.60;99.90;;;;;;5047192;28;20036;-59
2021/07/11 03:26:20;;;;;;;40.25;20.88;;;15.60;99.90;;;;;;5045548;28;20017;-62
2021/07/11 03:28:50;;;;;;;37.13;22.85;;;15.60;99.90;;;;;;5047640;28;20094;-60
2021/07/11 03:31:18;;;;;;;38.95;23.23;;;15.70;99.90;;;;;;5052537;28;20029;-62
2021/07/11 03:33:50;;;;;;;45.20;25.73;;;15.70;99.90;;;;;;5060792;28;20668;-62
2021/07/11 03:36:19;;;;;;;43.50;25.05;;;15.70;99.90;;;;;;5065522;28;20027;-62
2021/07/11 03:38:54;;;;;;;49.30;28.42;;;15.70;99.90;;;;;;5056135;28;20040;-63
2021/07/11 03:41:24;;;;;;;55.58;27.15;;;15.70;99.90;;;;;;5050736;28;20144;-62
2021/07/11 03:43:56;;;;;;;47.83;28.13;;;15.80;99.90;;;;;;5052301;28;20112;-61
2021/07/11 03:46:26;;;;;;;52.20;28.17;;;15.80;99.90;;;;;;5052170;28;20032;-63
2021/07/11 03:48:57;;;;;;;48.13;29.13;;;15.70;99.90;;;;;;5062413;28;20109;-63
2021/07/11 03:51:26;;;;;;;48.20;28.50;;;15.70;99.90;;;;;;5046888;28;20021;-63
2021/07/11 03:53:56;;;;;;;48.90;29.25;;;15.70;99.90;;;;;;5059365;28;20025;-63
2021/07/11 03:56:31;;;;;;;54.00;30.30;;;15.70;99.90;;;;;;5053338;28;20036;-62
2021/07/11 03:58:58;;;;;;;53.83;31.05;;;15.70;99.90;;;;;;5053398;28;20036;-61
2021/07/11 04:01:30;;;;;;;46.33;29.13;;;15.70;99.90;;;;;;5052295;28;20517;-62
2021/07/11 04:03:57;;;;;;;59.53;34.00;;;15.70;99.90;;;;;;5037591;28;20049;-60
2021/07/11 04:06:25;;;;;;;57.40;33.15;;;15.80;99.90;;;;;;5054649;28;20064;-62
2021/07/11 04:08:54;;;;;;;52.35;32.50;;;15.70;99.90;;;;;;5051930;28;20020;-62
2021/07/11 04:11:20;;;;;;;58.65;29.98;;;15.80;99.90;;;;;;5051205;28;20487;-63
2021/07/11 04:13:46;;;;;;;49.03;29.73;;;15.80;99.90;;;;;;5052380;28;20029;-63
2021/07/11 04:16:13;;;;;;;48.65;31.55;;;15.80;99.90;;;;;;5035190;28;20025;-61
2021/07/11 04:18:48;;;;;;;45.58;29.92;;;15.80;99.90;;;;;;5049205;28;20037;-62
2021/07/11 04:21:15;;;;;;;47.83;29.60;;;15.80;99.90;;;;;;5053296;28;20029;-63
2021/07/11 04:23:42;;;;;;;48.75;29.40;;;15.80;99.90;;;;;;5048648;28;20062;-63
2021/07/11 04:26:09;;;;;;;47.28;28.38;;;15.80;99.90;;;;;;5055188;28;20028;-61
2021/07/11 04:28:37;;;;;;;39.75;27.08;;;15.80;99.90;;;;;;5058260;28;20025;-61
2021/07/11 04:31:04;;;;;;;43.67;27.15;;;15.80;99.90;;;;;;5054530;28;20029;-63
2021/07/11 04:33:31;;;;;;;51.42;28.13;;;15.90;99.90;;;;;;5036170;28;20027;-62
2021/07/11 04:35:58;;;;;;;45.50;25.90;;;15.90;99.90;;;;;;5051355;28;20113;-62
2021/07/11 04:38:24;;;;;;;48.00;28.77;;;15.90;99.90;;;;;;5058632;28;20033;-63
2021/07/11 04:40:50;;;;;;;46.13;27.73;;;16.00;99.90;;;;;;5052547;28;20056;-62
2021/07/11 04:43:17;;;;;;;34.80;23.98;;;15.90;99.90;;;;;;5042926;28;20052;-60
2021/07/11 04:45:44;;;;;;;47.88;28.08;;;16.00;99.90;;;;;;5053065;28;20032;-63
2021/07/11 04:48:10;;;;;;;52.47;26.92;;;16.00;99.90;;;;;;5048732;28;20028;-61
2021/07/11 04:50:36;;;;;;;42.45;26.38;;;16.00;99.90;;;;;;5050262;28;20036;-63
2021/07/11 04:53:01;;;;;;;42.05;26.50;;;16.00;99.90;;;;;;5049863;28;20025;-61
2021/07/11 04:55:27;;;;;;;40.30;26.00;;;16.00;99.90;;;;;;5050207;28;20039;-61
2021/07/11 04:57:53;;;;;;;38.13;26.67;;;16.10;99.90;;;;;;5050310;28;20435;-63
2021/07/11 05:00:20;;;;;;;39.67;26.08;;;16.10;99.90;;;;;;5041594;28;20009;-62
2021/07/11 05:02:46;;;;;;;35.00;24.17;;;16.10;99.90;;;;;;5033391;28;20078;-61
2021/07/11 05:05:11;;;;;;;42.75;26.98;;;16.10;99.90;;;;;;5031276;28;20032;-62
2021/07/11 05:07:37;;;;;;;49.97;28.17;;;16.10;99.90;;;;;;5055116;28;20056;-62
2021/07/11 05:10:05;;;;;;;44.17;27.90;;;16.10;99.90;;;;;;5031935;28;20662;-62
2021/07/11 05:12:30;;;;;;;37.67;24.30;;;16.20;99.90;;;;;;5047545;28;20036;-61
2021/07/11 05:14:56;;;;;;;35.38;24.42;;;16.20;99.90;;;;;;5048718;28;20029;-62
2021/07/11 05:17:21;;;;;;;41.42;26.88;;;16.20;99.90;;;;;;5047888;28;20028;-63
2021/07/11 05:19:47;;;;;;;37.65;25.77;;;16.20;99.90;;;;;;5047734;28;20058;-62
2021/07/11 05:22:13;;;;;;;37.00;26.40;;;16.20;99.90;;;;;;5047407;28;20154;-61
2021/07/11 05:24:39;;;;;;;38.47;25.88;;;16.20;99.90;;;;;;5050368;28;20066;-62
2021/07/11 05:27:05;;;;;;;41.38;26.90;;;16.20;99.90;;;;;;5050939;28;20110;-62
2021/07/11 05:29:31;;;;;;;38.65;26.05;;;16.20;99.90;;;;;;5045826;28;20106;-62
2021/07/11 05:31:57;;;;;;;39.35;25.88;;;16.20;99.90;;;;;;5048896;28;20025;-59
2021/07/11 05:34:23;;;;;;;42.90;26.95;;;16.20;99.90;;;;;;5031945;28;20056;-62
2021/07/11 05:36:49;;;;;;;38.13;26.33;;;16.20;99.90;;;;;;5043371;28;20473;-61
2021/07/11 05:39:14;;;;;;;34.92;25.17;;;16.20;99.90;;;;;;5032329;28;20047;-63
2021/07/11 05:41:40;;;;;;;39.20;26.17;;;16.20;99.90;;;;;;5047290;28;20673;-61
2021/07/11 05:44:06;;;;;;;43.58;27.40;;;16.20;99.90;;;;;;5043989;28;20033;-63
2021/07/11 05:46:31;;;;;;;39.92;27.35;;;16.20;99.90;;;;;;5047442;28;20024;-63
2021/07/11 05:48:57;;;;;;;43.28;27.85;;;16.30;99.90;;;;;;5048900;28;20064;-62
2021/07/11 05:51:22;;;;;;;37.08;27.70;;;16.30;99.90;;;;;;5049355;28;20248;-62
2021/07/11 05:53:48;;;;;;;42.55;26.38;;;16.30;99.90;;;;;;5049498;28;20122;-60
2021/07/11 05:56:14;;;;;;;40.67;28.65;;;16.30;99.90;;;;;;5048079;28;20060;-61
2021/07/11 05:58:40;;;;;;;37.60;27.45;;;16.30;99.90;;;;;;5050030;28;20433;-61
2021/07/11 06:01:07;;;;;;;42.25;26.88;;;16.40;99.90;;;;;;5046072;28;20024;-62
2021/07/11 06:03:33;;;;;;;39.50;27.00;;;16.50;99.90;;;;;;5043101;28;20094;-63
2021/07/11 06:05:59;;;;;;;32.30;25.50;;;16.50;99.90;;;;;;5031907;28;20041;-61
2021/07/11 06:08:24;;;;;;;32.70;24.88;;;16.40;99.90;;;;;;5049853;28;20028;-62
2021/07/11 06:10:53;;;;;;;40.08;26.63;;;16.50;99.90;;;;;;5043481;28;20027;-63
2021/07/11 06:13:19;;;;;;;44.53;27.00;;;16.40;99.90;;;;;;5042778;28;20021;-62
2021/07/11 06:15:45;;;;;;;32.80;24.30;;;16.40;99.90;;;;;;5045958;28;20056;-63
2021/07/11 06:18:10;;;;;;;36.20;24.65;;;16.40;99.90;;;;;;5044003;28;20421;-63
2021/07/11 06:20:36;;;;;;;42.15;26.30;;;16.50;99.90;;;;;;5042859;28;20071;-62
2021/07/11 06:23:02;;;;;;;48.00;26.92;;;16.40;99.90;;;;;;5051912;28;20021;-62
2021/07/11 06:25:28;;;;;;;39.38;26.17;;;16.50;99.90;;;;;;5041505;28;20048;-63
2021/07/11 06:27:53;;;;;;;38.35;25.15;;;16.50;99.90;;;;;;5048364;28;20475;-63
2021/07/11 06:30:19;;;;;;;32.78;23.73;;;16.60;99.90;;;;;;5048014;28;20067;-62
2021/07/11 06:32:47;;;;;;;37.00;25.95;;;16.60;99.90;;;;;;5048332;28;20421;-61
2021/07/11 06:35:15;;;;;;;45.35;24.77;;;16.70;99.90;;;;;;5050946;28;20029;-62
2021/07/11 06:37:45;;;;;;;34.90;23.40;;;16.70;99.90;;;;;;5049133;28;20573;-62
2021/07/11 06:40:13;;;;;;;31.58;21.58;;;16.70;99.90;;;;;;5048483;28;20031;-61
2021/07/11 06:42:39;;;;;;;27.50;20.65;;;16.70;99.90;;;;;;5047084;28;20043;-62
2021/07/11 06:45:07;;;;;;;39.17;23.85;;;16.80;99.90;;;;;;5045272;28;20041;-61
2021/07/11 06:47:32;;;;;;;32.53;23.73;;;16.80;99.90;;;;;;5047025;28;20032;-61
2021/07/11 06:49:58;;;;;;;34.10;22.52;;;16.90;99.90;;;;;;5030596;28;20021;-62
2021/07/11 06:52:24;;;;;;;26.73;21.63;;;17.00;99.90;;;;;;5047741;28;20653;-62
2021/07/11 06:54:51;;;;;;;32.25;22.02;;;17.10;99.90;;;;;;5045721;28;20029;-63
2021/07/11 06:57:17;;;;;;;29.80;21.95;;;17.20;99.90;;;;;;5026942;28;20047;-63
2021/07/11 06:59:43;;;;;;;31.55;21.90;;;17.20;99.90;;;;;;5044331;28;20109;-64
2021/07/11 07:02:09;;;;;;;32.40;23.05;;;17.20;99.90;;;;;;5048296;28;20121;-63
2021/07/11 07:04:35;;;;;;;33.58;23.85;;;17.20;99.90;;;;;;5029592;28;20186;-61
2021/07/11 07:07:01;;;;;;;26.58;21.75;;;17.20;99.90;;;;;;5047623;28;20067;-62
2021/07/11 07:09:26;;;;;;;35.45;23.70;;;17.10;99.90;;;;;;5028493;28;20024;-62
2021/07/11 07:11:52;;;;;;;30.27;22.52;;;17.00;99.90;;;;;;5048192;28;20059;-63
2021/07/11 07:14:18;;;;;;;35.10;22.65;;;17.10;99.90;;;;;;5044190;28;20025;-62
2021/07/11 07:16:43;;;;;;;33.83;23.45;;;17.10;99.90;;;;;;5047241;28;20104;-63
2021/07/11 07:19:09;;;;;;;33.88;23.90;;;17.10;99.90;;;;;;5044835;28;20414;-62
2021/07/11 07:21:34;;;;;;;33.47;23.45;;;17.10;99.90;;;;;;5052588;28;20486;-61
2021/07/11 07:24:00;;;;;;;28.98;21.25;;;17.20;99.90;;;;;;5046179;28;20040;-62
2021/07/11 07:26:26;;;;;;;31.70;22.00;;;17.40;99.90;;;;;;5041459;28;20028;-63
2021/07/11 07:28:51;;;;;;;31.15;21.98;;;17.40;99.90;;;;;;5044779;28;20032;-62
2021/07/11 07:31:17;;;;;;;30.85;22.38;;;17.60;99.90;;;;;;5040961;28;20017;-63
2021/07/11 07:33:42;;;;;;;31.77;21.17;;;17.60;99.90;;;;;;5047981;28;20025;-63
2021/07/11 07:36:08;;;;;;;27.60;21.30;;;17.60;99.90;;;;;;5043778;28;20033;-61
2021/07/11 07:38:33;;;;;;;24.92;20.52;;;17.60;99.90;;;;;;5033190;28;20044;-62
2021/07/11 07:40:59;;;;;;;27.38;19.83;;;17.50;99.90;;;;;;5049748;28;20036;-63
2021/07/11 07:43:25;;;;;;;31.88;20.77;;;17.40;99.90;;;;;;5045824;28;20037;-62
2021/07/11 07:45:50;;;;;;;25.20;19.08;;;17.40;99.90;;;;;;5048020;28;20025;-62
2021/07/11 07:48:16;;;;;;;26.73;18.75;;;17.40;99.90;;;;;;5048699;28;20413;-63
2021/07/11 07:50:41;;;;;;;25.58;17.85;;;17.40;99.90;;;;;;5047333;28;20039;-63
2021/07/11 07:53:07;;;;;;;25.83;20.02;;;17.50;99.90;;;;;;5043643;28;20060;-62
2021/07/11 07:55:33;;;;;;;24.40;18.50;;;17.50;99.90;;;;;;5046704;28;20065;-61
2021/07/11 07:58:00;;;;;;;27.90;19.20;;;17.70;99.90;;;;;;5042880;28;20039;-63
2021/07/11 08:00:26;;;;;;;23.38;18.38;;;17.80;99.90;;;;;;5047520;28;20397;-63
2021/07/11 08:02:52;;;;;;;25.02;16.70;;;17.80;99.90;;;;;;5046034;28;20700;-62
2021/07/11 08:05:18;;;;;;;21.60;17.00;;;17.80;99.90;;;;;;5033685;28;20045;-60
2021/07/11 08:07:45;;;;;;;22.95;16.63;;;17.80;99.90;;;;;;5058659;28;20103;-61
2021/07/11 08:10:12;;;;;;;21.38;18.85;;;17.80;99.90;;;;;;5052730;28;20025;-62
2021/07/11 08:12:38;;;;;;;25.98;18.52;;;17.70;99.90;;;;;;5039897;28;20108;-63
2021/07/11 08:15:05;;;;;;;27.30;17.42;;;17.60;99.90;;;;;;5050060;28;20133;-62
2021/07/11 08:17:32;;;;;;;20.52;16.63;;;17.60;99.90;;;;;;5052775;28;20056;-62
2021/07/11 08:20:03;;;;;;;27.63;17.65;;;17.60;99.90;;;;;;5046143;28;20032;-62
2021/07/11 08:22:28;;;;;;;21.65;17.65;;;17.60;99.90;;;;;;5049575;28;20024;-62
2021/07/11 08:24:54;;;;;;;21.80;18.45;;;17.60;99.90;;;;;;5048051;28;20386;-62
2021/07/11 08:27:21;;;;;;;28.02;18.42;;;17.60;99.90;;;;;;5047691;28;20090;-62
2021/07/11 08:29:50;;;;;;;19.83;17.50;;;17.60;99.90;;;;;;5049478;28;20029;-62
2021/07/11 08:32:17;;;;;;;29.17;18.08;;;17.60;99.90;;;;;;5051437;28;20172;-62
2021/07/11 08:34:42;;;;;;;26.63;17.20;;;17.60;99.90;;;;;;5030893;28;20033;-61
2021/07/11 08:37:08;;;;;;;23.15;16.00;;;17.70;99.90;;;;;;5052506;28;20029;-62
2021/07/11 08:39:33;;;;;;;19.45;16.85;;;17.70;99.90;;;;;;5052081;28;20098;-63
2021/07/11 08:41:59;;;;;;;20.70;15.88;;;17.70;99.90;;;;;;5051614;28;20517;-61
2021/07/11 08:44:26;;;;;;;22.83;16.63;;;17.70;99.90;;;;;;5046700;28;20033;-62
2021/07/11 08:46:51;;;;;;;24.42;15.48;;;17.70;99.90;;;;;;5051365;28;20025;-62
2021/07/11 08:49:18;;;;;;;18.83;14.98;;;17.70;99.90;;;;;;5047534;28;20083;-62
2021/07/11 08:51:45;;;;;;;24.58;15.05;;;17.80;99.90;;;;;;5047994;28;20032;-63
2021/07/11 08:54:12;;;;;;;21.38;14.85;;;17.90;99.90;;;;;;5050613;28;20685;-62
2021/07/11 08:56:38;;;;;;;18.98;14.02;;;18.00;99.90;;;;;;5047279;28;20036;-62
2021/07/11 08:59:03;;;;;;;21.85;15.50;;;18.00;99.90;;;;;;5043404;28;20494;-62
2021/07/11 09:01:29;;;;;;;19.88;14.35;;;18.00;99.90;;;;;;5047883;28;20033;-62
2021/07/11 09:03:59;;;;;;;21.73;14.93;;;18.10;99.90;;;;;;5048920;28;20108;-62
2021/07/11 09:06:25;;;;;;;20.23;15.38;;;18.00;99.90;;;;;;5014337;28;20037;-62
2021/07/11 09:08:57;;;;;;;19.63;13.95;;;18.10;99.90;;;;;;5046907;28;20032;-62
2021/07/11 09:11:22;;;;;;;18.75;13.55;;;18.30;99.90;;;;;;5050622;28;20025;-62
2021/07/11 09:13:50;;;;;;;17.70;12.82;;;18.50;99.90;;;;;;5041517;28;20032;-62
2021/07/11 09:16:15;;;;;;;14.93;12.30;;;18.70;99.90;;;;;;5047626;28;20025;-62
2021/07/11 09:18:41;;;;;;;16.45;11.93;;;19.10;99.90;;;;;;5057389;28;20032;-62
2021/07/11 09:21:11;;;;;;;19.15;13.50;;;19.30;99.90;;;;;;5056847;28;20021;-61
2021/07/11 09:23:38;;;;;;;18.15;11.88;;;19.60;99.90;;;;;;5040257;28;20477;-61
2021/07/11 09:26:09;;;;;;;18.70;10.98;;;19.70;99.90;;;;;;5061264;28;20485;-63
2021/07/11 09:28:43;;;;;;;20.75;12.20;;;19.90;99.90;;;;;;5052266;28;20036;-61
2021/07/11 09:31:14;;;;;;;19.25;11.80;;;19.80;99.90;;;;;;5054431;28;20053;-60
2021/07/11 09:33:42;;;;;;;18.45;12.45;;;20.20;99.90;;;;;;5059701;28;20073;-61
2021/07/11 09:36:19;;;;;;;16.52;11.73;;;20.60;99.90;;;;;;5058744;28;20032;-63
2021/07/11 09:38:49;;;;;;;15.77;11.55;;;20.80;99.90;;;;;;5059850;28;20109;-62
2021/07/11 09:41:19;;;;;;;14.57;10.80;;;21.10;99.90;;;;;;5051652;28;20036;-62
2021/07/11 09:43:46;;;;;;;11.90;9.25;;;21.70;99.90;;;;;;5051214;28;20025;-61
2021/07/11 09:46:13;;;;;;;13.15;9.68;;;22.10;99.90;;;;;;5048292;28;20021;-63
2021/07/11 09:48:39;;;;;;;13.60;10.05;;;22.60;99.90;;;;;;5051350;28;20029;-62
2021/07/11 09:51:14;;;;;;;15.73;8.43;;;22.90;99.90;;;;;;5059390;28;20579;-63
2021/07/11 09:53:40;;;;;;;13.60;8.63;;;23.20;99.90;;;;;;5052962;28;20065;-61
2021/07/11 09:56:05;;;;;;;13.15;10.15;;;23.40;99.90;;;;;;5062035;28;20096;-63
2021/07/11 09:58:33;;;;;;;12.98;9.45;;;23.80;99.90;;;;;;5049836;28;20071;-62
2021/07/11 10:00:59;;;;;;;14.90;8.38;;;23.80;99.90;;;;;;5048740;28;20048;-63
2021/07/11 10:03:24;;;;;;;16.20;8.60;;;23.60;99.90;;;;;;5057848;28;20021;-63
2021/07/11 10:05:50;;;;;;;10.30;8.00;;;23.60;99.90;;;;;;5038678;28;20049;-64
2021/07/11 10:08:16;;;;;;;14.10;8.30;;;23.80;99.90;;;;;;5046072;28;20021;-64
2021/07/11 10:10:43;;;;;;;8.40;7.22;;;24.10;99.90;;;;;;5046814;28;20387;-63
2021/07/11 10:13:09;;;;;;;7.20;6.05;;;24.10;99.90;;;;;;5048617;28;20149;-62
2021/07/11 10:15:37;;;;;;;10.27;6.95;;;24.30;99.90;;;;;;5044841;28;20024;-64
2021/07/11 10:18:14;;;;;;;9.55;7.57;;;24.10;99.90;;;;;;5051536;28;20025;-63
2021/07/11 10:20:48;;;;;;;9.48;7.32;;;24.00;99.90;;;;;;5052546;28;20106;-63
2021/07/11 10:23:34;;;;;;;10.18;7.97;;;23.90;99.90;;;;;;5055553;28;20032;-62
2021/07/11 10:26:05;;;;;;;10.52;8.20;;;23.60;99.90;;;;;;5060023;28;20021;-61
2021/07/11 10:28:33;;;;;;;10.63;8.02;;;23.30;99.90;;;;;;5047651;28;20526;-63
2021/07/11 10:30:59;;;;;;;11.40;8.60;;;23.30;99.90;;;;;;5041630;28;20056;-63
2021/07/11 10:33:26;;;;;;;8.77;7.05;;;23.00;99.90;;;;;;5040581;28;20029;-62
2021/07/11 10:36:03;;;;;;;10.30;8.35;;;23.40;99.90;;;;;;5047797;28;20025;-62
2021/07/11 10:38:39;;;;;;;8.70;7.90;;;23.30;99.90;;;;;;5044982;28;20095;-62
2021/07/11 10:41:16;;;;;;;10.20;9.10;;;23.10;99.90;;;;;;5049885;28;20128;-63
2021/07/11 10:43:45;;;;;;;11.32;8.88;;;23.10;99.90;;;;;;5073037;22;20058;-63
2021/07/11 10:46:11;;;;;;;11.05;9.00;;;23.10;99.90;;;;;;5067169;28;20063;-64
2021/07/11 10:48:37;;;;;;;13.30;8.38;;;22.90;99.90;;;;;;5083994;28;20055;-63
2021/07/11 10:51:03;;;;;;;8.25;7.30;;;23.00;99.90;;;;;;5081741;28;20051;-65
2021/07/11 10:53:34;;;;;;;8.95;8.05;;;22.90;99.90;;;;;;5086940;28;20096;-65
2021/07/11 10:56:00;;;;;;;11.27;7.32;;;23.00;99.90;;;;;;5056492;28;20029;-64
2021/07/11 10:58:36;;;;;;;9.93;7.55;;;23.20;99.90;;;;;;5049914;28;20025;-64
2021/07/11 11:01:02;;;;;;;9.70;8.27;;;23.30;99.90;;;;;;5066065;28;20031;-65
2021/07/11 11:03:28;;;;;;;10.65;8.30;;;23.50;99.90;;;;;;5070800;28;20085;-64
2021/07/11 11:05:53;;;;;;;12.35;8.27;;;23.80;99.90;;;;;;5070811;28;20028;-65
2021/07/11 11:08:25;;;;;;;11.10;7.85;;;23.30;99.90;;;;;;5070364;28;20016;-64
2021/07/11 11:10:53;;;;;;;11.10;7.10;;;23.20;99.90;;;;;;5070062;28;20025;-64
2021/07/11 11:13:24;;;;;;;12.90;7.95;;;23.70;99.90;;;;;;5055130;28;20059;-65
2021/07/11 11:15:52;;;;;;;12.93;7.65;;;24.10;99.90;;;;;;5070275;28;20032;-64
2021/07/11 11:18:19;;;;;;;11.00;6.75;;;24.30;99.90;;;;;;5034547;28;20060;-65
2021/07/11 11:21:08;;;;;;;8.43;6.13;;;24.40;99.90;;;;;;5050841;28;20033;-64
2021/07/11 11:23:42;;;;;;;8.98;6.72;;;24.60;99.90;;;;;;5067266;28;20460;-65
2021/07/11 11:26:08;;;;;;;;;;;24.60;99.90;;;;;;5070798;28;20115;-64
2021/07/11 11:28:39;;;;;;;8.35;6.35;;;24.40;99.90;;;;;;5069471;28;19908;-64
2021/07/11 11:31:06;;;;;;;11.18;7.18;;;24.80;99.70;;;;;;5070093;28;20031;-64
2021/07/11 11:33:45;;;;;;;10.38;6.78;;;25.00;99.90;;;;;;5052407;28;20020;-65
2021/07/11 11:36:10;;;;;;;9.48;7.03;;;25.40;99.90;;;;;;5070603;28;20025;-64
2021/07/11 11:38:44;;;;;;;10.40;7.00;;;25.20;98.10;;;;;;5070376;28;20024;-64
2021/07/11 11:41:16;;;;;;;9.15;7.78;;;25.00;99.90;;;;;;5069873;28;20035;-64
2021/07/11 11:43:41;;;;;;;7.30;6.00;;;24.70;99.90;;;;;;5069112;28;20061;-64
2021/07/11 11:46:07;;;;;;;6.68;5.78;;;24.60;99.60;;;;;;5069742;28;20032;-64
2021/07/11 11:48:33;;;;;;;7.72;5.68;;;24.50;99.40;;;;;;5070150;28;20056;-64
2021/07/11 11:51:04;;;;;;;6.03;4.90;;;24.70;98.60;;;;;;5072065;28;20094;-65
2021/07/11 11:53:30;;;;;;;6.43;4.90;;;24.90;96.50;;;;;;5074392;28;20017;-65
2021/07/11 11:55:57;;;;;;;9.13;6.00;;;25.30;97.30;;;;;;5073479;28;20111;-64
2021/07/11 11:58:30;;;;;;;6.07;5.47;;;25.20;97.30;;;;;;5074105;28;20028;-65
2021/07/11 12:01:05;;;;;;;6.65;5.22;;;25.10;96.30;;;;;;5073656;28;20090;-65
2021/07/11 12:03:35;;;;;;;7.47;6.20;;;25.30;97.50;;;;;;5074183;28;20031;-64
2021/07/11 12:06:01;;;;;;;8.82;5.53;;;25.30;98.20;;;;;;5056320;28;20033;-65
2021/07/11 12:08:28;;;;;;;7.13;6.03;;;24.70;96.70;;;;;;5073684;28;20021;-65
2021/07/11 12:10:54;;;;;;;8.65;5.78;;;25.30;95.10;;;;;;5073383;28;20646;-64
2021/07/11 12:13:24;;;;;;;6.63;5.90;;;25.40;96.20;;;;;;5055949;28;20120;-65
2021/07/11 12:16:00;;;;;;;6.65;5.82;;;25.90;95.70;;;;;;5072804;28;20501;-65
2021/07/11 12:18:26;;;;;;;8.55;6.30;;;25.70;95.60;;;;;;5054757;28;20025;-64
2021/07/11 12:20:54;;;;;;;7.03;5.82;;;25.70;95.60;;;;;;5054070;28;20035;-65
2021/07/11 12:23:20;;;;;;;7.55;5.80;;;25.60;96.50;;;;;;5053856;28;20049;-65
2021/07/11 12:26:00;;;;;;;8.35;5.90;;;25.80;96.20;;;;;;5053191;28;20528;-64
2021/07/11 12:28:26;;;;;;;7.15;5.63;;;25.50;95.60;;;;;;5053506;28;20075;-65
2021/07/11 12:30:54;;;;;;;7.00;5.55;;;25.60;96.80;;;;;;5067671;28;20032;-65
2021/07/11 12:33:37;;;;;;;9.32;5.82;;;25.50;95.80;;;;;;5073675;28;20051;-64